createdAt,value
2019-03-16T00:00:40.264Z,5.40
2019-03-16T00:01:40.281Z,7.60
2019-03-16T00:02:40.247Z,5.30
2019-03-16T00:03:40.233Z,4.50
2019-03-16T00:04:40.221Z,4.80
2019-03-16T00:05:40.218Z,8.80
2019-03-16T00:06:40.204Z,10.60
2019-03-16T00:07:40.208Z,8.60
2019-03-16T00:08:40.184Z,5.40
2019-03-16T00:09:40.171Z,2.50
2019-03-16T00:10:40.159Z,3.60
2019-03-16T00:11:40.178Z,4.10
2019-03-16T00:12:40.150Z,6.40
2019-03-16T00:13:40.131Z,5.50
2019-03-16T00:14:40.119Z,5.00
2019-03-16T00:15:40.111Z,10.00
2019-03-16T00:16:40.101Z,6.80
2019-03-16T00:17:40.097Z,5.00
2019-03-16T00:18:40.075Z,14.10
2019-03-16T00:19:40.066Z,10.30
2019-03-16T00:20:40.058Z,5.30
2019-03-16T00:21:40.040Z,7.20
2019-03-16T00:22:40.059Z,4.00
2019-03-16T00:23:40.020Z,6.00
2019-03-16T00:24:40.009Z,6.60
2019-03-16T00:25:40.004Z,5.50
2019-03-16T00:26:39.991Z,4.80
2019-03-16T00:27:39.981Z,5.10
2019-03-16T00:28:39.986Z,4.40
2019-03-16T00:29:39.956Z,5.50
2019-03-16T05:00:27.558Z,5.70
2019-03-16T05:01:27.534Z,0.70
2019-03-16T05:02:27.526Z,0.90
2019-03-16T05:03:27.536Z,1.20
2019-03-16T05:04:27.506Z,0.90
2019-03-16T05:05:27.494Z,1.40
2019-03-16T05:06:27.481Z,1.40
2019-03-16T05:07:27.466Z,1.20
2019-03-16T05:08:27.456Z,1.30
2019-03-16T05:09:27.474Z,1.00
2019-03-16T05:10:27.438Z,1.70
2019-03-16T05:11:27.431Z,0.80
2019-03-16T05:12:27.413Z,1.30
2019-03-16T05:13:27.404Z,1.00
2019-03-16T05:14:27.396Z,1.00
2019-03-16T05:15:27.403Z,0.80
2019-03-16T05:16:27.464Z,1.70
2019-03-16T05:17:27.366Z,1.00
2019-03-16T05:18:27.350Z,1.30
2019-03-16T05:19:27.338Z,1.10
2019-03-16T05:20:27.341Z,0.90
2019-03-16T05:21:27.318Z,1.00
2019-03-16T05:22:27.310Z,1.20
2019-03-16T05:23:33.562Z,1.10
2019-03-16T05:24:27.288Z,1.40
2019-03-16T05:25:27.288Z,0.70
2019-03-16T05:26:27.268Z,0.80
2019-03-16T05:27:27.258Z,0.80
2019-03-16T05:28:27.243Z,1.90
2019-03-16T05:29:27.230Z,1.20
2019-03-16T05:30:27.238Z,1.80
2019-03-16T05:31:27.211Z,2.90
2019-03-16T05:32:27.203Z,0.90
2019-03-16T05:33:27.195Z,1.40
2019-03-16T05:34:27.183Z,1.40
2019-03-16T05:35:27.187Z,1.20
2019-03-16T05:36:27.171Z,1.60
2019-03-16T05:37:27.163Z,1.20
2019-03-16T05:38:27.134Z,1.10
2019-03-16T05:39:27.131Z,1.20
2019-03-16T05:40:27.131Z,1.40
2019-03-16T05:41:27.123Z,1.90
2019-03-16T05:42:27.091Z,1.10
2019-03-16T05:43:27.082Z,1.10
2019-03-16T05:44:27.076Z,1.00
2019-03-16T05:45:27.065Z,0.90
2019-03-16T05:46:27.078Z,1.10
2019-03-16T05:47:27.040Z,1.50
2019-03-16T05:48:27.028Z,0.90
2019-03-16T05:49:27.015Z,1.40
2019-03-16T05:50:27.004Z,1.10
2019-03-16T05:51:27.004Z,1.80
2019-03-16T05:52:27.002Z,1.50
2019-03-16T05:53:26.978Z,1.00
2019-03-16T05:54:26.969Z,0.60
2019-03-16T05:55:26.956Z,1.50
2019-03-16T05:56:26.966Z,0.70
2019-03-16T05:57:26.932Z,0.90
2019-03-16T05:58:26.928Z,1.10
2019-03-16T05:59:26.916Z,1.10
2019-03-16T06:00:26.900Z,0.90
2019-03-16T06:01:26.887Z,1.40
2019-03-16T06:02:26.890Z,0.80
2019-03-16T06:03:26.868Z,1.20
2019-03-16T06:04:26.860Z,1.50
2019-03-16T06:05:26.851Z,0.70
2019-03-16T06:06:27.500Z,1.90
2019-03-16T06:07:26.842Z,1.30
2019-03-16T06:08:26.815Z,1.50
2019-03-16T06:09:26.802Z,1.40
2019-03-16T06:10:26.792Z,1.20
2019-03-16T06:11:26.783Z,1.30
2019-03-16T06:12:26.794Z,1.10
2019-03-16T06:13:26.766Z,0.80
2019-03-16T06:14:26.749Z,0.80
2019-03-16T06:15:26.747Z,1.30
2019-03-16T06:16:26.732Z,0.60
2019-03-16T06:17:26.727Z,2.80
2019-03-16T06:18:26.727Z,1.00
2019-03-16T06:19:26.700Z,0.80
2019-03-16T06:20:26.687Z,1.50
2019-03-16T06:21:26.678Z,1.40
2019-03-16T06:22:26.663Z,0.80
2019-03-16T06:23:26.673Z,1.40
2019-03-16T06:24:28.141Z,0.70
2019-03-16T06:25:26.648Z,1.20
2019-03-16T06:26:26.627Z,0.80
2019-03-16T06:27:26.617Z,1.40
2019-03-16T06:28:26.686Z,0.90
2019-03-16T06:29:26.603Z,1.40
2019-03-16T06:30:26.584Z,1.60
2019-03-16T06:31:26.572Z,1.10
2019-03-16T06:32:26.562Z,0.50
2019-03-16T06:33:26.546Z,0.80
2019-03-16T06:34:26.551Z,0.90
2019-03-16T06:35:29.368Z,1.00
2019-03-16T06:36:26.519Z,0.80
2019-03-16T06:37:26.510Z,0.40
2019-03-16T06:38:26.501Z,1.50
2019-03-16T06:39:26.505Z,1.10
2019-03-16T06:40:26.473Z,1.00
2019-03-16T06:41:26.462Z,0.50
2019-03-16T06:42:26.450Z,0.60
2019-03-16T06:43:26.446Z,1.10
2019-03-16T06:44:26.454Z,0.90
2019-03-16T06:45:26.424Z,1.00
2019-03-16T06:46:26.408Z,0.80
2019-03-16T06:47:26.401Z,1.10
2019-03-16T06:48:26.391Z,1.60
2019-03-16T06:49:26.386Z,1.40
2019-03-16T06:50:26.391Z,1.50
2019-03-16T06:51:26.360Z,2.30
2019-03-16T06:52:26.347Z,3.60
2019-03-16T06:53:26.350Z,3.10
2019-03-16T06:54:26.325Z,1.60
2019-03-16T06:55:26.316Z,1.70
2019-03-16T06:56:26.324Z,1.50
2019-03-16T06:57:26.299Z,1.90
2019-03-16T06:58:26.291Z,1.60
2019-03-16T06:59:26.274Z,1.10
2019-03-16T07:00:26.264Z,2.40
2019-03-16T07:01:26.264Z,0.60
2019-03-16T07:02:26.269Z,2.30
2019-03-16T07:03:26.232Z,0.70
2019-03-16T07:04:26.220Z,1.10
2019-03-16T07:05:37.728Z,1.00
2019-03-16T07:06:27.212Z,0.50
2019-03-16T07:07:26.244Z,1.30
2019-03-16T07:08:26.178Z,1.10
2019-03-16T07:09:26.171Z,0.80
2019-03-16T07:10:26.160Z,1.10
2019-03-16T07:11:26.146Z,3.10
2019-03-16T07:12:26.149Z,0.90
2019-03-16T07:13:26.128Z,0.60
2019-03-16T07:14:26.110Z,0.80
2019-03-16T07:15:26.102Z,2.10
2019-03-16T07:16:26.095Z,0.80
2019-03-16T07:17:26.100Z,1.10
2019-03-16T07:18:26.069Z,1.70
2019-03-16T07:19:26.075Z,3.00
2019-03-16T07:20:26.057Z,1.00
2019-03-16T07:21:26.046Z,2.40
2019-03-16T07:22:26.072Z,0.80
2019-03-16T07:23:26.062Z,0.80
2019-03-16T07:24:26.034Z,1.50
2019-03-16T07:25:25.994Z,1.30
2019-03-16T07:26:25.986Z,1.30
2019-03-16T07:27:32.185Z,0.90
2019-03-16T07:28:25.970Z,2.00
2019-03-16T07:29:25.957Z,0.90
2019-03-16T07:30:25.944Z,2.40
2019-03-16T07:31:25.930Z,1.70
2019-03-16T07:32:25.927Z,4.00
2019-03-16T07:33:25.932Z,3.80
2019-03-16T07:34:25.914Z,2.90
2019-03-16T07:35:25.887Z,1.60
2019-03-16T07:36:25.899Z,2.10
2019-03-16T07:37:25.867Z,1.40
2019-03-16T07:38:25.885Z,2.60
2019-03-16T07:39:25.866Z,2.40
2019-03-16T07:40:25.840Z,3.60
2019-03-16T07:41:25.828Z,2.40
2019-03-16T07:42:25.815Z,2.60
2019-03-16T07:43:25.816Z,2.00
2019-03-16T07:44:25.791Z,3.60
2019-03-16T07:45:25.782Z,1.50
2019-03-16T07:46:25.774Z,6.00
2019-03-16T07:47:25.766Z,6.20
2019-03-16T07:48:25.767Z,3.80
2019-03-16T07:49:25.741Z,5.30
2019-03-16T07:50:25.731Z,2.20
2019-03-16T07:51:25.723Z,3.40
2019-03-16T07:52:25.712Z,4.90
2019-03-16T07:53:25.700Z,4.00
2019-03-16T07:54:25.702Z,2.40
2019-03-16T07:55:25.685Z,4.10
2019-03-16T07:56:25.665Z,6.60
2019-03-16T07:57:39.215Z,4.60
2019-03-16T07:58:26.648Z,3.30
2019-03-16T07:59:25.662Z,6.60
2019-03-16T08:00:25.750Z,2.70
2019-03-16T08:01:25.615Z,3.10
2019-03-16T08:02:25.601Z,2.30
2019-03-16T08:03:25.603Z,3.10
2019-03-16T08:04:25.585Z,4.20
2019-03-16T08:05:25.572Z,2.90
2019-03-16T08:06:25.559Z,5.10
2019-03-16T08:07:25.548Z,4.30
2019-03-16T08:08:25.550Z,7.10
2019-03-16T08:09:25.569Z,4.10
2019-03-16T08:10:25.519Z,4.90
2019-03-16T08:11:25.510Z,5.40
2019-03-16T08:12:25.499Z,2.80
2019-03-16T08:13:25.489Z,4.30
2019-03-16T08:14:25.475Z,3.40
2019-03-16T08:15:27.994Z,7.50
2019-03-16T08:16:25.450Z,3.60
2019-03-16T08:17:25.442Z,3.70
2019-03-16T08:18:25.433Z,3.50
2019-03-16T08:19:25.425Z,3.90
2019-03-16T08:20:25.423Z,3.40
2019-03-16T08:21:25.398Z,4.60
2019-03-16T08:22:25.392Z,4.80
2019-03-16T08:23:25.383Z,6.90
2019-03-16T08:24:25.373Z,4.40
2019-03-16T08:25:25.373Z,4.90
2019-03-16T08:26:25.362Z,3.00
2019-03-16T08:27:25.333Z,5.40
2019-03-16T08:28:25.324Z,4.20
2019-03-16T08:29:25.335Z,8.10
2019-03-16T08:30:25.320Z,7.70
2019-03-16T08:31:25.297Z,4.80
2019-03-16T08:32:25.563Z,8.90
2019-03-16T08:33:25.278Z,3.60
2019-03-16T08:34:25.261Z,9.20
2019-03-16T08:35:25.269Z,15.10
2019-03-16T08:36:25.244Z,5.30
2019-03-16T08:37:25.230Z,4.00
2019-03-16T08:38:25.218Z,10.60
2019-03-16T08:39:25.213Z,8.40
2019-03-16T08:40:25.198Z,3.00
2019-03-16T08:41:25.201Z,9.90
2019-03-16T08:42:25.177Z,5.80
2019-03-16T08:43:25.176Z,4.70
2019-03-16T08:44:25.168Z,7.90
2019-03-16T08:45:25.148Z,5.50
2019-03-16T08:46:25.167Z,4.90
2019-03-16T08:47:25.126Z,5.90
2019-03-16T08:48:25.110Z,4.20
2019-03-16T08:49:25.105Z,5.20
2019-03-16T08:50:25.094Z,3.30
2019-03-16T08:51:25.106Z,5.00
2019-03-16T08:52:25.067Z,2.80
2019-03-16T08:53:25.063Z,3.70
2019-03-16T08:54:25.051Z,4.70
2019-03-16T08:55:25.041Z,4.50
2019-03-16T08:56:25.030Z,5.30
2019-03-16T08:57:25.034Z,5.20
2019-03-16T08:58:25.007Z,3.40
2019-03-16T08:59:25.016Z,3.40
2019-03-16T09:00:24.983Z,5.40
2019-03-16T09:01:24.974Z,4.10
2019-03-16T09:02:24.966Z,3.40
2019-03-16T09:03:24.957Z,5.60
2019-03-16T09:04:24.945Z,3.60
2019-03-16T09:05:24.948Z,3.90
2019-03-16T09:06:24.920Z,3.10
2019-03-16T09:07:24.907Z,4.30
2019-03-16T09:08:24.919Z,6.30
2019-03-16T09:09:24.891Z,3.20
2019-03-16T09:10:24.885Z,2.70
2019-03-16T09:11:24.878Z,2.00
2019-03-16T09:12:24.854Z,2.30
2019-03-16T09:13:24.846Z,4.30
2019-03-16T09:14:24.846Z,3.20
2019-03-16T09:15:24.849Z,4.30
2019-03-16T09:16:24.821Z,4.60
2019-03-16T09:17:24.806Z,3.90
2019-03-16T09:18:24.793Z,4.20
2019-03-16T09:19:24.780Z,5.10
2019-03-16T09:20:24.772Z,1.20
2019-03-16T09:21:24.777Z,2.50
2019-03-16T09:22:24.756Z,2.60
2019-03-16T09:23:24.744Z,1.90
2019-03-16T09:24:24.726Z,5.10
2019-03-16T09:25:24.718Z,5.40
2019-03-16T09:26:24.723Z,1.60
2019-03-16T09:27:31.187Z,3.60
2019-03-16T09:28:25.689Z,1.60
2019-03-16T09:29:24.677Z,2.30
2019-03-16T09:30:24.667Z,3.10
2019-03-16T09:31:24.673Z,2.00
2019-03-16T09:32:24.641Z,2.70
2019-03-16T09:33:24.740Z,5.50
2019-03-16T09:34:24.639Z,3.30
2019-03-16T09:35:24.617Z,3.60
2019-03-16T09:36:24.607Z,4.60
2019-03-16T09:37:24.607Z,5.00
2019-03-16T09:38:24.579Z,1.80
2019-03-16T09:39:24.569Z,3.20
2019-03-16T09:40:24.563Z,2.90
2019-03-16T09:41:24.549Z,2.60
2019-03-16T09:42:24.552Z,3.00
2019-03-16T09:43:24.525Z,3.70
2019-03-16T09:44:24.516Z,5.70
2019-03-16T09:45:24.510Z,4.60
2019-03-16T09:46:24.497Z,1.50
2019-03-16T09:47:24.504Z,4.50
2019-03-16T09:48:24.477Z,3.60
2019-03-16T09:49:24.466Z,3.80
2019-03-16T09:50:24.451Z,2.40
2019-03-16T09:51:24.452Z,2.90
2019-03-16T09:52:24.429Z,2.10
2019-03-16T09:53:24.439Z,1.10
2019-03-16T09:54:24.413Z,2.00
2019-03-16T09:55:24.415Z,3.30
2019-03-16T09:56:24.421Z,2.90
2019-03-16T09:57:24.378Z,4.10
2019-03-16T09:58:31.271Z,2.50
2019-03-16T09:59:25.359Z,3.20
2019-03-16T10:00:24.350Z,3.60
2019-03-16T10:01:24.425Z,4.10
2019-03-16T10:02:24.324Z,3.10
2019-03-16T10:03:24.326Z,6.00
2019-03-16T10:04:24.301Z,2.20
2019-03-16T10:05:24.309Z,4.10
2019-03-16T10:06:24.284Z,4.90
2019-03-16T10:07:24.283Z,2.70
2019-03-16T10:08:24.282Z,3.10
2019-03-16T10:09:24.255Z,4.50
2019-03-16T10:10:24.239Z,3.70
2019-03-16T10:11:24.226Z,2.90
2019-03-16T10:12:24.237Z,4.60
2019-03-16T10:13:24.210Z,5.60
2019-03-16T10:14:24.196Z,2.80
2019-03-16T10:15:24.187Z,3.70
2019-03-16T10:16:24.179Z,1.90
2019-03-16T10:17:24.185Z,5.70
2019-03-16T10:18:24.156Z,2.70
2019-03-16T10:19:24.157Z,2.50
2019-03-16T10:20:24.137Z,4.80
2019-03-16T10:21:24.128Z,6.10
2019-03-16T10:22:24.113Z,3.10
2019-03-16T10:23:24.136Z,2.90
2019-03-16T10:24:24.088Z,2.60
2019-03-16T10:25:24.080Z,3.60
2019-03-16T10:26:24.071Z,2.30
2019-03-16T10:27:24.063Z,3.20
2019-03-16T10:28:24.045Z,5.30
2019-03-16T10:29:24.055Z,4.00
2019-03-16T10:30:24.030Z,2.20
2019-03-16T10:31:24.020Z,3.60
2019-03-16T10:32:24.010Z,3.30
2019-03-16T10:33:23.996Z,2.10
2019-03-16T10:34:23.983Z,4.10
2019-03-16T10:35:23.986Z,4.80
2019-03-16T10:36:23.961Z,2.20
2019-03-16T10:37:23.952Z,4.70
2019-03-16T10:38:23.944Z,3.10
2019-03-16T10:39:24.029Z,3.90
2019-03-16T10:40:23.952Z,2.50
2019-03-16T10:41:23.912Z,3.60
2019-03-16T10:42:23.899Z,2.90
2019-03-16T10:43:23.885Z,2.90
2019-03-16T10:44:23.884Z,2.40
2019-03-16T10:45:23.869Z,2.70
2019-03-16T10:46:23.876Z,4.70
2019-03-16T10:47:23.843Z,2.00
2019-03-16T10:48:23.848Z,2.90
2019-03-16T10:49:23.824Z,1.50
2019-03-16T10:50:23.817Z,1.80
2019-03-16T10:51:23.806Z,3.20
2019-03-16T10:52:23.800Z,1.90
2019-03-16T10:53:23.798Z,2.60
2019-03-16T10:54:23.771Z,1.50
2019-03-16T10:55:23.757Z,2.50
2019-03-16T10:56:23.747Z,1.70
2019-03-16T10:57:23.739Z,1.40
2019-03-16T10:58:23.731Z,1.60
2019-03-16T10:59:23.735Z,3.50
2019-03-16T11:00:23.705Z,1.50
2019-03-16T11:01:23.696Z,1.40
2019-03-16T11:02:23.687Z,1.80
2019-03-16T11:03:23.680Z,1.70
2019-03-16T11:04:23.697Z,2.50
2019-03-16T11:05:23.667Z,2.00
2019-03-16T11:06:23.643Z,3.20
2019-03-16T11:07:23.631Z,2.90
2019-03-16T11:08:23.625Z,2.80
2019-03-16T11:09:26.585Z,3.30
2019-03-16T11:10:23.619Z,1.70
2019-03-16T11:11:23.592Z,2.00
2019-03-16T11:12:23.582Z,3.50
2019-03-16T11:13:23.572Z,3.10
2019-03-16T11:14:23.576Z,2.20
2019-03-16T11:15:23.548Z,2.70
2019-03-16T11:16:23.545Z,3.60
2019-03-16T11:17:23.531Z,1.80
2019-03-16T11:18:23.513Z,1.50
2019-03-16T11:19:23.524Z,2.60
2019-03-16T11:20:23.494Z,2.70
2019-03-16T11:21:23.481Z,1.20
2019-03-16T11:22:23.481Z,2.30
2019-03-16T11:23:23.465Z,5.90
2019-03-16T11:24:29.791Z,2.10
2019-03-16T11:25:23.461Z,1.90
2019-03-16T11:26:23.430Z,3.00
2019-03-16T11:27:23.417Z,8.20
2019-03-16T11:28:23.414Z,2.40
2019-03-16T11:29:23.401Z,4.80
2019-03-16T11:30:23.391Z,2.40
2019-03-16T11:31:23.390Z,3.60
2019-03-16T11:32:23.372Z,1.90
2019-03-16T11:33:23.359Z,2.60
2019-03-16T11:34:23.348Z,2.10
2019-03-16T11:35:23.338Z,1.80
2019-03-16T11:36:23.339Z,3.60
2019-03-16T11:37:23.314Z,2.90
2019-03-16T11:38:23.305Z,3.20
2019-03-16T11:39:23.289Z,3.10
2019-03-16T11:40:23.287Z,2.40
2019-03-16T11:41:23.292Z,3.00
2019-03-16T11:42:23.279Z,2.60
2019-03-16T11:43:23.258Z,3.00
2019-03-16T11:44:23.236Z,2.40
2019-03-16T11:45:23.229Z,1.60
2019-03-16T11:46:23.242Z,2.20
2019-03-16T11:47:23.215Z,1.50
2019-03-16T11:48:23.197Z,3.30
2019-03-16T11:49:23.186Z,3.30
2019-03-16T11:50:23.174Z,3.40
2019-03-16T11:51:23.169Z,3.20
2019-03-16T11:52:23.172Z,1.70
2019-03-16T11:53:23.155Z,2.80
2019-03-16T11:54:23.146Z,2.90
2019-03-16T11:55:23.124Z,1.70
2019-03-16T11:56:23.106Z,1.90
2019-03-16T11:57:23.114Z,2.50
2019-03-16T11:58:23.104Z,2.50
2019-03-16T11:59:23.074Z,2.90
2019-03-16T12:00:23.079Z,2.60
2019-03-16T12:01:23.057Z,1.20
2019-03-16T12:02:23.050Z,3.10
2019-03-16T12:03:23.031Z,0.90
2019-03-16T12:04:23.043Z,2.40
2019-03-16T12:05:23.013Z,3.40
2019-03-16T12:06:23.013Z,1.30
2019-03-16T12:07:23.012Z,1.60
2019-03-16T12:08:23.000Z,2.50
2019-03-16T12:09:22.982Z,1.70
2019-03-16T12:10:22.958Z,3.10
2019-03-16T12:11:22.950Z,3.10
2019-03-16T12:12:22.941Z,1.90
2019-03-16T12:13:22.942Z,1.90
2019-03-16T12:14:22.931Z,3.60
2019-03-16T12:15:22.909Z,2.50
2019-03-16T12:16:22.890Z,3.10
2019-03-16T12:17:22.882Z,3.10
2019-03-16T12:18:22.885Z,1.80
2019-03-16T12:19:22.880Z,4.10
2019-03-16T12:20:22.866Z,2.80
2019-03-16T12:21:22.841Z,1.70
2019-03-16T12:22:22.828Z,3.50
2019-03-16T12:23:22.815Z,2.10
2019-03-16T12:24:22.810Z,1.70
2019-03-16T12:25:22.800Z,2.20
2019-03-16T12:26:22.855Z,1.30
2019-03-16T12:27:22.780Z,2.30
2019-03-16T12:28:28.951Z,3.30
2019-03-16T12:29:33.449Z,3.00
2019-03-16T12:30:23.745Z,1.80
2019-03-16T12:31:22.732Z,3.80
2019-03-16T12:32:22.736Z,5.80
2019-03-16T12:33:22.774Z,2.80
2019-03-16T12:34:22.704Z,3.40
2019-03-16T12:35:22.709Z,3.80
2019-03-16T12:36:22.679Z,2.70
2019-03-16T12:37:22.689Z,3.00
2019-03-16T12:38:22.656Z,3.00
2019-03-16T12:39:22.646Z,3.20
2019-03-16T12:40:22.638Z,3.00
2019-03-16T12:41:22.621Z,3.10
2019-03-16T12:42:22.633Z,1.80
2019-03-16T12:43:22.605Z,5.20
2019-03-16T12:44:22.592Z,2.30
2019-03-16T12:45:22.586Z,3.00
2019-03-16T12:46:22.567Z,3.20
2019-03-16T12:47:22.572Z,3.10
2019-03-16T12:48:22.553Z,3.00
2019-03-16T12:49:22.541Z,1.80
2019-03-16T12:50:22.524Z,3.90
2019-03-16T12:51:22.532Z,2.10
2019-03-16T12:52:22.504Z,5.10
2019-03-16T12:53:22.508Z,2.80
2019-03-16T12:54:22.487Z,2.40
2019-03-16T12:55:22.476Z,2.00
2019-03-16T12:56:22.504Z,2.90
2019-03-16T12:57:22.454Z,2.00
2019-03-16T12:58:22.463Z,2.40
2019-03-16T12:59:22.432Z,3.40
2019-03-16T13:00:22.419Z,2.70
2019-03-16T13:01:22.426Z,1.10
2019-03-16T13:02:22.403Z,2.60
2019-03-16T13:03:22.390Z,2.20
2019-03-16T13:04:22.374Z,3.90
2019-03-16T13:05:22.363Z,2.60
2019-03-16T13:06:22.359Z,3.40
2019-03-16T13:07:22.363Z,3.30
2019-03-16T13:08:22.345Z,3.60
2019-03-16T13:09:22.405Z,2.90
2019-03-16T13:10:22.309Z,1.60
2019-03-16T13:11:22.300Z,1.90
2019-03-16T13:12:22.304Z,2.00
2019-03-16T13:13:22.301Z,1.50
2019-03-16T13:14:22.276Z,2.80
2019-03-16T13:15:22.262Z,3.00
2019-03-16T13:16:22.249Z,3.60
2019-03-16T13:17:22.263Z,1.20
2019-03-16T13:18:22.223Z,1.80
2019-03-16T13:19:22.218Z,2.70
2019-03-16T13:20:22.205Z,1.10
2019-03-16T13:21:22.198Z,1.70
2019-03-16T13:22:22.181Z,1.20
2019-03-16T13:23:22.187Z,1.20
2019-03-16T13:24:22.162Z,2.70
2019-03-16T13:25:22.149Z,2.20
2019-03-16T13:26:22.146Z,1.60
2019-03-16T13:27:22.147Z,3.00
2019-03-16T13:28:22.121Z,2.40
2019-03-16T13:29:22.117Z,2.70
2019-03-16T13:30:22.096Z,1.10
2019-03-16T13:31:22.101Z,2.30
2019-03-16T13:32:22.078Z,2.00
2019-03-16T13:33:22.065Z,1.70
2019-03-16T13:34:22.059Z,1.10
2019-03-16T13:35:22.050Z,1.00
2019-03-16T13:36:22.049Z,1.30
2019-03-16T13:37:22.022Z,1.80
2019-03-16T13:38:22.017Z,1.10
2019-03-16T13:39:22.775Z,2.60
2019-03-16T13:40:21.994Z,1.70
2019-03-16T13:41:21.987Z,1.50
2019-03-16T13:42:21.968Z,2.60
2019-03-16T13:43:21.961Z,2.10
2019-03-16T13:44:21.964Z,1.00
2019-03-16T13:45:21.941Z,1.20
2019-03-16T13:46:21.933Z,1.00
2019-03-16T13:47:21.920Z,1.10
2019-03-16T13:48:21.909Z,1.50
2019-03-16T14:02:08.639Z,3.40
2019-03-16T14:03:08.618Z,3.80
2019-03-16T14:04:08.597Z,3.50
2019-03-16T14:05:09.131Z,2.70
2019-03-16T14:06:08.661Z,5.50
2019-03-16T14:07:08.791Z,3.60
2019-03-16T14:08:08.558Z,3.20
2019-03-16T14:09:08.550Z,4.00
2019-03-16T14:10:08.564Z,3.20
2019-03-16T14:11:08.526Z,2.70
2019-03-16T14:12:08.613Z,3.80
2019-03-16T14:13:08.499Z,4.70
2019-03-16T14:14:08.494Z,2.80
2019-03-16T14:15:08.685Z,3.90
2019-03-16T14:16:08.656Z,4.50
2019-03-16T14:17:08.544Z,5.90
2019-03-16T14:18:09.689Z,4.00
2019-03-16T14:19:08.487Z,4.50
2019-03-16T14:20:08.430Z,6.10
2019-03-16T14:21:08.495Z,3.30
2019-03-16T14:22:08.407Z,5.70
2019-03-16T14:23:08.395Z,4.00
2019-03-16T14:24:08.415Z,4.40
2019-03-16T14:25:08.369Z,4.90
2019-03-16T14:26:08.369Z,2.40
2019-03-16T14:27:08.391Z,4.50
2019-03-16T14:28:08.354Z,6.80
2019-03-16T14:29:08.355Z,4.30
2019-03-16T14:30:08.316Z,6.20
2019-03-16T14:31:08.313Z,6.00
2019-03-16T14:32:08.324Z,5.70
2019-03-16T14:33:08.311Z,4.00
2019-03-16T14:34:08.276Z,5.10
2019-03-16T14:35:08.268Z,3.70
2019-03-16T14:36:08.426Z,4.80
2019-03-16T14:37:08.278Z,4.30
2019-03-16T14:38:08.235Z,4.30
2019-03-16T14:39:08.218Z,4.60
2019-03-16T14:40:15.828Z,4.30
2019-03-16T14:41:15.764Z,4.00
2019-03-16T14:42:15.769Z,4.80
2019-03-16T14:43:15.813Z,3.40
2019-03-16T14:44:15.716Z,4.30
2019-03-16T14:45:15.714Z,3.90
2019-03-16T14:46:15.692Z,3.40
2019-03-16T14:47:15.690Z,3.30
2019-03-16T14:48:15.655Z,5.00
2019-03-16T14:49:15.671Z,4.10
2019-03-16T14:50:16.467Z,5.00
2019-03-16T14:51:15.626Z,6.00
2019-03-16T14:52:15.639Z,2.60
2019-03-16T14:53:16.624Z,3.90
2019-03-16T14:54:15.600Z,2.90
2019-03-16T14:55:15.669Z,2.70
2019-03-16T14:56:15.561Z,3.80
2019-03-16T14:57:15.578Z,3.90
2019-03-16T14:58:15.576Z,4.10
2019-03-16T14:59:08.007Z,4.90
2019-03-16T15:00:08.002Z,4.10
2019-03-16T15:01:07.982Z,4.50
2019-03-16T15:02:07.969Z,4.40
2019-03-16T15:03:07.989Z,4.70
2019-03-16T15:04:07.955Z,7.90
2019-03-16T15:05:07.950Z,5.60
2019-03-16T15:06:07.940Z,3.50
2019-03-16T15:07:07.924Z,4.90
2019-03-16T15:08:07.915Z,3.40
2019-03-16T15:09:07.910Z,4.90
2019-03-16T15:10:07.888Z,4.80
2019-03-16T15:11:07.909Z,5.60
2019-03-16T15:12:07.881Z,5.00
2019-03-16T15:13:07.853Z,5.60
2019-03-16T15:14:20.702Z,4.20
2019-03-16T15:15:08.833Z,4.70
2019-03-16T15:16:07.827Z,4.80
2019-03-16T15:17:07.829Z,5.60
2019-03-16T15:18:07.809Z,3.80
2019-03-16T15:19:07.793Z,4.20
2019-03-16T15:20:07.837Z,3.00
2019-03-16T15:21:07.867Z,4.00
2019-03-16T15:22:07.778Z,3.90
2019-03-16T15:23:07.811Z,4.80
2019-03-16T15:24:07.748Z,3.80
2019-03-16T15:25:10.873Z,2.80
2019-03-16T15:26:07.707Z,3.20
2019-03-16T15:27:07.703Z,5.90
2019-03-16T15:28:07.711Z,5.80
2019-03-16T15:29:07.745Z,3.20
2019-03-16T15:30:07.664Z,4.30
2019-03-16T15:31:07.668Z,5.20
2019-03-16T15:32:07.648Z,4.40
2019-03-16T15:33:07.649Z,4.90
2019-03-16T15:34:07.634Z,4.40
2019-03-16T15:35:07.639Z,5.50
2019-03-16T15:36:07.609Z,4.70
2019-03-16T15:37:07.598Z,3.90
2019-03-16T15:38:07.604Z,5.50
2019-03-16T15:39:07.575Z,3.90
2019-03-16T15:40:07.798Z,5.40
2019-03-16T15:41:07.561Z,5.60
2019-03-16T15:42:07.541Z,4.30
2019-03-16T15:43:07.531Z,4.20
2019-03-16T15:44:07.516Z,4.50
2019-03-16T15:45:07.609Z,4.60
2019-03-16T15:46:07.567Z,4.70
2019-03-16T15:47:07.653Z,3.40
2019-03-16T15:48:07.616Z,4.90
2019-03-16T15:49:07.610Z,6.60
2019-03-16T15:50:07.528Z,4.30
2019-03-16T15:51:07.509Z,4.20
2019-03-16T15:52:07.592Z,3.00
2019-03-16T15:53:07.416Z,6.60
2019-03-16T15:54:07.415Z,4.70
2019-03-16T15:55:07.397Z,6.00
2019-03-16T15:56:07.388Z,2.90
2019-03-16T15:57:07.410Z,3.10
2019-03-16T15:58:08.689Z,4.30
2019-03-16T15:59:07.354Z,5.80
2019-03-16T16:00:07.398Z,3.90
2019-03-16T16:01:07.476Z,5.90
2019-03-16T16:02:07.326Z,4.20
2019-03-16T16:03:09.236Z,4.90
2019-03-16T16:04:07.432Z,5.70
2019-03-16T16:05:07.290Z,5.60
2019-03-16T16:06:07.300Z,4.90
2019-03-16T16:07:07.287Z,5.60
2019-03-16T16:08:07.258Z,5.00
2019-03-16T16:09:07.280Z,6.80
2019-03-16T16:10:07.292Z,4.70
2019-03-16T16:11:07.262Z,6.40
2019-03-16T16:12:07.730Z,4.40
2019-03-16T16:13:09.895Z,5.50
2019-03-16T16:14:07.249Z,4.90
2019-03-16T16:16:33.907Z,6.10
2019-03-16T16:17:33.986Z,6.60
2019-03-16T16:18:33.984Z,6.40
2019-03-16T16:19:33.868Z,5.00
2019-03-16T16:20:33.859Z,5.10
2019-03-16T16:21:33.900Z,4.40
2019-03-16T16:22:33.851Z,4.70
2019-03-16T16:23:48.736Z,6.80
2019-03-16T16:36:12.410Z,5.00
2019-03-16T16:37:11.809Z,4.10
2019-03-16T16:38:12.765Z,3.60
2019-03-16T16:39:14.240Z,6.00
2019-03-16T16:40:11.745Z,3.70
2019-03-16T16:41:11.738Z,5.30
2019-03-16T16:42:11.717Z,6.20
2019-03-16T16:43:11.673Z,4.70
2019-03-16T16:44:11.786Z,5.10
2019-03-16T16:45:11.777Z,5.20
2019-03-16T16:46:19.695Z,7.90
2019-03-16T16:47:11.628Z,5.80
2019-03-16T16:48:11.731Z,5.10
2019-03-16T16:49:11.633Z,5.40
2019-03-16T16:50:11.669Z,4.40
2019-03-16T16:56:37.606Z,3.60
2019-03-16T16:57:37.737Z,4.00
2019-03-16T16:58:44.161Z,4.00
2019-03-16T16:59:37.550Z,3.70
2019-03-16T17:00:37.606Z,5.00
2019-03-16T17:01:38.812Z,5.40
2019-03-16T17:02:37.554Z,6.70
2019-03-16T17:03:37.506Z,5.70
2019-03-16T17:04:38.180Z,4.50
2019-03-16T17:05:38.113Z,2.60
2019-03-16T17:11:56.525Z,4.00
2019-03-16T17:12:20.819Z,4.80
2019-03-16T17:13:21.290Z,6.40
2019-03-16T17:14:23.596Z,4.20
2019-03-16T17:59:52.045Z,3.80
2019-03-16T18:00:51.997Z,5.20
2019-03-16T18:25:37.925Z,5.80
2019-03-16T21:20:19.227Z,7.20
2019-03-16T23:19:39.254Z,4.80
2019-03-16T23:20:39.231Z,4.30
2019-03-16T23:21:39.217Z,5.90
2019-03-16T23:22:39.215Z,4.10
2019-03-16T23:23:39.200Z,6.20
2019-03-16T23:24:39.206Z,4.40
2019-03-16T23:25:46.778Z,3.70
2019-03-16T23:26:39.170Z,6.80
2019-03-16T23:27:39.164Z,6.20
2019-03-16T23:28:39.165Z,4.40
2019-03-16T23:29:39.134Z,4.80
2019-03-16T23:30:39.147Z,4.80
2019-03-16T23:31:39.114Z,5.90
2019-03-16T23:32:39.104Z,3.70
2019-03-16T23:33:39.102Z,5.40
2019-03-16T23:34:39.084Z,4.50
2019-03-16T23:35:39.099Z,4.70
2019-03-16T23:36:39.095Z,3.10
2019-03-16T23:37:39.076Z,3.20
2019-03-16T23:38:39.038Z,3.90
2019-03-16T23:39:39.024Z,5.10
2019-03-16T23:40:39.020Z,5.20
2019-03-16T23:41:39.028Z,3.40
2019-03-16T23:42:38.999Z,5.40
2019-03-16T23:43:38.981Z,4.00
2019-03-16T23:44:38.971Z,4.80
2019-03-16T23:45:38.972Z,4.20
2019-03-16T23:46:38.955Z,4.80
2019-03-16T23:47:39.005Z,3.60
2019-03-16T23:48:38.936Z,4.30
2019-03-16T23:49:38.948Z,5.90
2019-03-16T23:50:38.911Z,3.60
2019-03-16T23:51:38.896Z,5.20
2019-03-16T23:52:38.919Z,4.60
2019-03-16T23:53:38.887Z,4.20
2019-03-16T23:54:38.883Z,5.20
2019-03-16T23:55:38.859Z,3.90
2019-03-16T23:56:38.868Z,4.90
2019-03-16T23:57:38.866Z,4.30
2019-03-16T23:58:38.848Z,4.30
2019-03-16T23:59:38.821Z,4.50
